sensor_id;sensor_type;location;lat;lon;timestamp;temperature;humidity
21261;DHT22;10788;47.930;9.766;2023-02-15T00:00:10;-0.80;99.90
21261;DHT22;10788;47.930;9.766;2023-02-15T00:02:36;-0.80;99.90
21261;DHT22;10788;47.930;9.766;2023-02-15T00:05:02;-0.90;99.90
21261;DHT22;10788;47.930;9.766;2023-02-15T00:07:27;-0.80;99.90
21261;DHT22;10788;47.930;9.766;2023-02-15T00:09:53;-0.90;99.90
21261;DHT22;10788;47.930;9.766;2023-02-15T00:12:19;-0.90;99.90
21261;DHT22;10788;47.930;9.766;2023-02-15T00:14:44;-0.90;99.90
21261;DHT22;10788;47.930;9.766;2023-02-15T00:17:10;-0.90;99.90
21261;DHT22;10788;47.930;9.766;2023-02-15T00:19:36;-0.90;99.90
21261;DHT22;10788;47.930;9.766;2023-02-15T00:22:01;-0.90;99.90
21261;DHT22;10788;47.930;9.766;2023-02-15T00:24:27;-0.90;99.90
21261;DHT22;10788;47.930;9.766;2023-02-15T00:26:52;-0.90;99.90
21261;DHT22;10788;47.930;9.766;2023-02-15T00:29:19;-0.90;99.90
21261;DHT22;10788;47.930;9.766;2023-02-15T00:31:45;-1.00;99.90
21261;DHT22;10788;47.930;9.766;2023-02-15T00:34:12;-1.00;99.90
21261;DHT22;10788;47.930;9.766;2023-02-15T00:36:38;-1.00;99.90
21261;DHT22;10788;47.930;9.766;2023-02-15T00:39:04;-1.00;99.90
21261;DHT22;10788;47.930;9.766;2023-02-15T00:41:33;-1.00;99.90
21261;DHT22;10788;47.930;9.766;2023-02-15T00:43:59;-1.10;99.90
21261;DHT22;10788;47.930;9.766;2023-02-15T00:46:25;-1.20;99.90
21261;DHT22;10788;47.930;9.766;2023-02-15T00:48:50;-1.20;99.90
21261;DHT22;10788;47.930;9.766;2023-02-15T00:51:16;-1.20;99.90
21261;DHT22;10788;47.930;9.766;2023-02-15T00:53:43;-1.10;99.90
21261;DHT22;10788;47.930;9.766;2023-02-15T00:56:10;-1.10;99.90
21261;DHT22;10788;47.930;9.766;2023-02-15T00:58:35;-1.10;99.90
21261;DHT22;10788;47.930;9.766;2023-02-15T01:01:07;-1.10;99.90
21261;DHT22;10788;47.930;9.766;2023-02-15T01:03:33;-1.10;99.90
21261;DHT22;10788;47.930;9.766;2023-02-15T01:05:59;-1.10;99.90
21261;DHT22;10788;47.930;9.766;2023-02-15T01:08:25;-1.10;99.90
21261;DHT22;10788;47.930;9.766;2023-02-15T01:10:51;-1.10;99.90
21261;DHT22;10788;47.930;9.766;2023-02-15T01:13:16;-1.20;99.90
21261;DHT22;10788;47.930;9.766;2023-02-15T01:15:43;-1.10;99.90
21261;DHT22;10788;47.930;9.766;2023-02-15T01:18:10;-1.20;99.90
21261;DHT22;10788;47.930;9.766;2023-02-15T01:20:37;-1.20;99.90
21261;DHT22;10788;47.930;9.766;2023-02-15T01:23:05;-1.30;99.90
21261;DHT22;10788;47.930;9.766;2023-02-15T01:25:33;-1.50;99.90
21261;DHT22;10788;47.930;9.766;2023-02-15T01:27:59;-1.60;99.90
21261;DHT22;10788;47.930;9.766;2023-02-15T01:30:25;-1.60;99.90
21261;DHT22;10788;47.930;9.766;2023-02-15T01:32:51;-1.70;99.90
21261;DHT22;10788;47.930;9.766;2023-02-15T01:35:16;-1.80;99.90
21261;DHT22;10788;47.930;9.766;2023-02-15T01:37:42;-1.80;99.90
21261;DHT22;10788;47.930;9.766;2023-02-15T01:40:13;-1.80;99.90
21261;DHT22;10788;47.930;9.766;2023-02-15T01:42:39;-1.80;99.90
21261;DHT22;10788;47.930;9.766;2023-02-15T01:45:31;-1.80;99.90
21261;DHT22;10788;47.930;9.766;2023-02-15T01:50:37;-1.80;99.90
21261;DHT22;10788;47.930;9.766;2023-02-15T01:55:57;-1.80;99.90
21261;DHT22;10788;47.930;9.766;2023-02-15T01:58:26;-1.80;99.90
21261;DHT22;10788;47.930;9.766;2023-02-15T02:00:54;-1.70;99.90
21261;DHT22;10788;47.930;9.766;2023-02-15T02:03:30;-1.70;99.90
21261;DHT22;10788;47.930;9.766;2023-02-15T02:06:01;-1.70;99.90
21261;DHT22;10788;47.930;9.766;2023-02-15T02:08:27;-1.70;99.90
21261;DHT22;10788;47.930;9.766;2023-02-15T02:10:53;-1.70;99.90
21261;DHT22;10788;47.930;9.766;2023-02-15T02:13:19;-1.70;99.90
21261;DHT22;10788;47.930;9.766;2023-02-15T02:27:33;-1.60;99.90
21261;DHT22;10788;47.930;9.766;2023-02-15T02:41:23;-1.70;99.90
21261;DHT22;10788;47.930;9.766;2023-02-15T02:43:57;-1.70;99.90
21261;DHT22;10788;47.930;9.766;2023-02-15T02:46:32;-1.70;99.90
21261;DHT22;10788;47.930;9.766;2023-02-15T02:49:01;-1.80;99.90
21261;DHT22;10788;47.930;9.766;2023-02-15T02:51:27;-1.70;99.90
21261;DHT22;10788;47.930;9.766;2023-02-15T02:53:55;-1.70;99.90
21261;DHT22;10788;47.930;9.766;2023-02-15T02:56:39;-1.80;99.90
21261;DHT22;10788;47.930;9.766;2023-02-15T02:59:31;-1.80;99.90
21261;DHT22;10788;47.930;9.766;2023-02-15T03:02:29;-1.90;99.90
21261;DHT22;10788;47.930;9.766;2023-02-15T03:05:01;-2.00;99.90
21261;DHT22;10788;47.930;9.766;2023-02-15T03:07:30;-2.00;99.90
21261;DHT22;10788;47.930;9.766;2023-02-15T03:09:59;-2.00;99.90
21261;DHT22;10788;47.930;9.766;2023-02-15T03:12:37;-2.20;99.90
21261;DHT22;10788;47.930;9.766;2023-02-15T03:15:12;-2.20;99.90
21261;DHT22;10788;47.930;9.766;2023-02-15T03:17:49;-2.30;99.90
21261;DHT22;10788;47.930;9.766;2023-02-15T03:20:27;-2.30;99.90
21261;DHT22;10788;47.930;9.766;2023-02-15T03:23:06;-2.30;99.90
21261;DHT22;10788;47.930;9.766;2023-02-15T03:25:40;-2.30;99.90
21261;DHT22;10788;47.930;9.766;2023-02-15T03:28:09;-2.40;99.90
21261;DHT22;10788;47.930;9.766;2023-02-15T03:30:38;-2.40;99.90
21261;DHT22;10788;47.930;9.766;2023-02-15T03:33:06;-2.40;99.90
21261;DHT22;10788;47.930;9.766;2023-02-15T03:35:39;-2.40;99.90
21261;DHT22;10788;47.930;9.766;2023-02-15T03:38:07;-2.40;99.90
21261;DHT22;10788;47.930;9.766;2023-02-15T03:40:38;-2.40;99.90
21261;DHT22;10788;47.930;9.766;2023-02-15T03:46:29;-2.50;99.90
21261;DHT22;10788;47.930;9.766;2023-02-15T03:49:04;-2.40;99.90
21261;DHT22;10788;47.930;9.766;2023-02-15T03:51:34;-2.40;99.90
21261;DHT22;10788;47.930;9.766;2023-02-15T03:54:18;-2.40;99.90
21261;DHT22;10788;47.930;9.766;2023-02-15T03:57:07;-2.30;99.90
21261;DHT22;10788;47.930;9.766;2023-02-15T03:59:53;-2.40;99.90
21261;DHT22;10788;47.930;9.766;2023-02-15T04:05:14;-2.50;99.90
21261;DHT22;10788;47.930;9.766;2023-02-15T04:07:40;-2.50;99.90
21261;DHT22;10788;47.930;9.766;2023-02-15T04:10:06;-2.50;99.90
21261;DHT22;10788;47.930;9.766;2023-02-15T04:12:50;-2.50;99.90
21261;DHT22;10788;47.930;9.766;2023-02-15T04:15:15;-2.50;99.90
21261;DHT22;10788;47.930;9.766;2023-02-15T04:18:02;-2.60;99.90
21261;DHT22;10788;47.930;9.766;2023-02-15T04:20:28;-2.70;99.90
21261;DHT22;10788;47.930;9.766;2023-02-15T04:23:12;-2.70;99.90
21261;DHT22;10788;47.930;9.766;2023-02-15T04:25:56;-2.70;99.90
21261;DHT22;10788;47.930;9.766;2023-02-15T04:28:22;-2.70;99.90
21261;DHT22;10788;47.930;9.766;2023-02-15T04:30:47;-2.80;99.90
21261;DHT22;10788;47.930;9.766;2023-02-15T04:33:13;-2.90;99.90
21261;DHT22;10788;47.930;9.766;2023-02-15T04:35:38;-2.90;99.90
21261;DHT22;10788;47.930;9.766;2023-02-15T04:38:04;-3.00;99.90
21261;DHT22;10788;47.930;9.766;2023-02-15T04:40:30;-3.00;99.90
21261;DHT22;10788;47.930;9.766;2023-02-15T04:42:55;-3.10;99.90
21261;DHT22;10788;47.930;9.766;2023-02-15T04:45:21;-3.30;99.90
21261;DHT22;10788;47.930;9.766;2023-02-15T04:47:46;-3.30;99.90
21261;DHT22;10788;47.930;9.766;2023-02-15T04:50:12;-3.30;99.90
21261;DHT22;10788;47.930;9.766;2023-02-15T04:52:38;-3.30;99.90
21261;DHT22;10788;47.930;9.766;2023-02-15T04:55:04;-3.50;99.90
21261;DHT22;10788;47.930;9.766;2023-02-15T04:57:29;-3.50;99.90
21261;DHT22;10788;47.930;9.766;2023-02-15T04:59:55;-3.50;99.90
21261;DHT22;10788;47.930;9.766;2023-02-15T05:02:21;-3.50;99.90
21261;DHT22;10788;47.930;9.766;2023-02-15T05:04:46;-3.50;99.90
21261;DHT22;10788;47.930;9.766;2023-02-15T05:07:12;-3.50;99.90
21261;DHT22;10788;47.930;9.766;2023-02-15T05:09:37;-3.50;99.90
21261;DHT22;10788;47.930;9.766;2023-02-15T05:12:03;-3.50;99.90
21261;DHT22;10788;47.930;9.766;2023-02-15T05:14:29;-3.50;99.90
21261;DHT22;10788;47.930;9.766;2023-02-15T05:16:54;-3.40;99.90
21261;DHT22;10788;47.930;9.766;2023-02-15T05:19:20;-3.50;99.90
21261;DHT22;10788;47.930;9.766;2023-02-15T05:21:45;-3.50;99.90
21261;DHT22;10788;47.930;9.766;2023-02-15T05:24:11;-3.40;99.90
21261;DHT22;10788;47.930;9.766;2023-02-15T05:26:55;-3.50;99.90
21261;DHT22;10788;47.930;9.766;2023-02-15T05:29:39;-3.50;99.90
21261;DHT22;10788;47.930;9.766;2023-02-15T05:32:05;-3.50;99.90
21261;DHT22;10788;47.930;9.766;2023-02-15T05:34:30;-3.50;99.90
21261;DHT22;10788;47.930;9.766;2023-02-15T05:36:56;-3.50;99.90
21261;DHT22;10788;47.930;9.766;2023-02-15T05:39:22;-3.50;99.90
21261;DHT22;10788;47.930;9.766;2023-02-15T05:41:47;-3.50;99.90
21261;DHT22;10788;47.930;9.766;2023-02-15T05:44:13;-3.50;99.90
21261;DHT22;10788;47.930;9.766;2023-02-15T05:46:38;-3.40;99.90
21261;DHT22;10788;47.930;9.766;2023-02-15T05:49:04;-3.50;99.90
21261;DHT22;10788;47.930;9.766;2023-02-15T05:51:29;-3.40;99.90
21261;DHT22;10788;47.930;9.766;2023-02-15T05:53:55;-3.50;99.90
21261;DHT22;10788;47.930;9.766;2023-02-15T05:56:21;-3.50;99.90
21261;DHT22;10788;47.930;9.766;2023-02-15T05:58:46;-3.40;99.90
21261;DHT22;10788;47.930;9.766;2023-02-15T06:01:14;-3.50;99.90
21261;DHT22;10788;47.930;9.766;2023-02-15T06:03:41;-3.50;99.90
21261;DHT22;10788;47.930;9.766;2023-02-15T06:06:07;-3.50;99.90
21261;DHT22;10788;47.930;9.766;2023-02-15T06:08:34;-3.60;99.90
21261;DHT22;10788;47.930;9.766;2023-02-15T06:11:00;-3.50;99.90
21261;DHT22;10788;47.930;9.766;2023-02-15T06:13:25;-3.60;99.90
21261;DHT22;10788;47.930;9.766;2023-02-15T06:15:51;-3.60;99.90
21261;DHT22;10788;47.930;9.766;2023-02-15T06:18:17;-3.70;99.90
21261;DHT22;10788;47.930;9.766;2023-02-15T06:20:44;-3.70;99.90
21261;DHT22;10788;47.930;9.766;2023-02-15T06:23:10;-3.70;99.90
21261;DHT22;10788;47.930;9.766;2023-02-15T06:25:36;-3.70;99.90
21261;DHT22;10788;47.930;9.766;2023-02-15T06:28:01;-3.60;99.90
21261;DHT22;10788;47.930;9.766;2023-02-15T06:30:27;-3.60;99.90
21261;DHT22;10788;47.930;9.766;2023-02-15T06:32:52;-3.60;99.90
21261;DHT22;10788;47.930;9.766;2023-02-15T06:35:18;-3.60;99.90
21261;DHT22;10788;47.930;9.766;2023-02-15T06:37:45;-3.60;99.90
21261;DHT22;10788;47.930;9.766;2023-02-15T06:40:12;-3.60;99.90
21261;DHT22;10788;47.930;9.766;2023-02-15T06:42:37;-3.50;99.90
21261;DHT22;10788;47.930;9.766;2023-02-15T06:45:04;-3.50;99.90
21261;DHT22;10788;47.930;9.766;2023-02-15T06:47:30;-3.40;99.90
21261;DHT22;10788;47.930;9.766;2023-02-15T06:49:55;-3.40;99.90
21261;DHT22;10788;47.930;9.766;2023-02-15T06:52:22;-3.40;99.90
21261;DHT22;10788;47.930;9.766;2023-02-15T06:54:48;-3.50;99.90
21261;DHT22;10788;47.930;9.766;2023-02-15T06:57:14;-3.50;99.90
21261;DHT22;10788;47.930;9.766;2023-02-15T06:59:39;-3.50;99.90
21261;DHT22;10788;47.930;9.766;2023-02-15T07:02:05;-3.40;99.90
21261;DHT22;10788;47.930;9.766;2023-02-15T07:04:31;-3.40;99.90
21261;DHT22;10788;47.930;9.766;2023-02-15T07:06:57;-3.30;99.90
21261;DHT22;10788;47.930;9.766;2023-02-15T07:09:22;-3.30;99.90
21261;DHT22;10788;47.930;9.766;2023-02-15T07:11:48;-3.40;99.90
21261;DHT22;10788;47.930;9.766;2023-02-15T07:14:32;-3.30;99.90
21261;DHT22;10788;47.930;9.766;2023-02-15T07:16:58;-3.40;99.90
21261;DHT22;10788;47.930;9.766;2023-02-15T07:19:23;-3.30;99.90
21261;DHT22;10788;47.930;9.766;2023-02-15T07:21:49;-3.20;99.90
21261;DHT22;10788;47.930;9.766;2023-02-15T07:24:15;-3.20;99.90
21261;DHT22;10788;47.930;9.766;2023-02-15T07:26:40;-3.20;99.90
21261;DHT22;10788;47.930;9.766;2023-02-15T07:29:06;-3.20;99.90
21261;DHT22;10788;47.930;9.766;2023-02-15T07:31:31;-3.20;99.90
21261;DHT22;10788;47.930;9.766;2023-02-15T07:33:57;-3.20;99.90
21261;DHT22;10788;47.930;9.766;2023-02-15T07:36:23;-3.10;99.90
21261;DHT22;10788;47.930;9.766;2023-02-15T07:38:48;-3.10;99.90
21261;DHT22;10788;47.930;9.766;2023-02-15T07:41:15;-3.00;99.90
21261;DHT22;10788;47.930;9.766;2023-02-15T07:43:42;-3.00;99.90
21261;DHT22;10788;47.930;9.766;2023-02-15T07:46:11;-3.00;99.90
21261;DHT22;10788;47.930;9.766;2023-02-15T07:48:38;-3.00;99.90
21261;DHT22;10788;47.930;9.766;2023-02-15T07:51:06;-3.00;99.90
21261;DHT22;10788;47.930;9.766;2023-02-15T07:53:33;-3.00;99.90
21261;DHT22;10788;47.930;9.766;2023-02-15T07:56:00;-3.00;99.90
21261;DHT22;10788;47.930;9.766;2023-02-15T07:58:26;-2.90;99.90
21261;DHT22;10788;47.930;9.766;2023-02-15T08:01:12;-2.80;99.90
21261;DHT22;10788;47.930;9.766;2023-02-15T08:03:37;-2.70;99.90
21261;DHT22;10788;47.930;9.766;2023-02-15T08:06:03;-2.70;99.90
21261;DHT22;10788;47.930;9.766;2023-02-15T08:08:29;-2.60;99.90
21261;DHT22;10788;47.930;9.766;2023-02-15T08:13:57;-2.60;99.90
21261;DHT22;10788;47.930;9.766;2023-02-15T08:16:47;-2.50;99.90
21261;DHT22;10788;47.930;9.766;2023-02-15T08:19:18;-2.40;99.90
21261;DHT22;10788;47.930;9.766;2023-02-15T08:21:46;-2.40;99.90
21261;DHT22;10788;47.930;9.766;2023-02-15T08:24:13;-2.30;99.90
21261;DHT22;10788;47.930;9.766;2023-02-15T08:26:40;-2.30;99.90
21261;DHT22;10788;47.930;9.766;2023-02-15T08:29:06;-2.30;99.90
21261;DHT22;10788;47.930;9.766;2023-02-15T08:31:33;-2.40;99.90
21261;DHT22;10788;47.930;9.766;2023-02-15T08:33:59;-2.30;99.90
21261;DHT22;10788;47.930;9.766;2023-02-15T08:36:29;-2.20;99.90
21261;DHT22;10788;47.930;9.766;2023-02-15T08:39:01;-2.10;99.90
21261;DHT22;10788;47.930;9.766;2023-02-15T08:41:29;-2.10;99.90
21261;DHT22;10788;47.930;9.766;2023-02-15T08:43:57;-2.10;99.90
21261;DHT22;10788;47.930;9.766;2023-02-15T08:46:25;-2.10;99.90
21261;DHT22;10788;47.930;9.766;2023-02-15T08:48:51;-2.00;99.90
21261;DHT22;10788;47.930;9.766;2023-02-15T08:51:20;-1.90;99.90
21261;DHT22;10788;47.930;9.766;2023-02-15T08:53:48;-1.70;99.90
21261;DHT22;10788;47.930;9.766;2023-02-15T08:56:16;-1.50;99.90
21261;DHT22;10788;47.930;9.766;2023-02-15T08:58:42;-1.40;99.90
21261;DHT22;10788;47.930;9.766;2023-02-15T09:01:10;-1.40;99.90
21261;DHT22;10788;47.930;9.766;2023-02-15T09:03:36;-1.20;99.90
21261;DHT22;10788;47.930;9.766;2023-02-15T09:06:02;-1.10;99.90
21261;DHT22;10788;47.930;9.766;2023-02-15T09:08:28;-0.80;99.90
21261;DHT22;10788;47.930;9.766;2023-02-15T09:10:54;-0.70;99.90
21261;DHT22;10788;47.930;9.766;2023-02-15T09:13:20;-0.40;99.90
21261;DHT22;10788;47.930;9.766;2023-02-15T09:15:46;0.00;99.90
21261;DHT22;10788;47.930;9.766;2023-02-15T09:18:12;0.40;99.90
21261;DHT22;10788;47.930;9.766;2023-02-15T09:20:43;0.80;99.90
21261;DHT22;10788;47.930;9.766;2023-02-15T09:23:09;1.20;99.90
21261;DHT22;10788;47.930;9.766;2023-02-15T09:25:35;1.50;99.90
21261;DHT22;10788;47.930;9.766;2023-02-15T09:28:00;1.80;99.90
21261;DHT22;10788;47.930;9.766;2023-02-15T09:30:26;2.10;99.90
21261;DHT22;10788;47.930;9.766;2023-02-15T09:32:52;2.30;99.90
21261;DHT22;10788;47.930;9.766;2023-02-15T09:35:17;2.40;99.90
21261;DHT22;10788;47.930;9.766;2023-02-15T09:37:43;2.70;99.90
21261;DHT22;10788;47.930;9.766;2023-02-15T09:40:11;3.00;99.90
21261;DHT22;10788;47.930;9.766;2023-02-15T09:42:54;3.20;99.90
21261;DHT22;10788;47.930;9.766;2023-02-15T09:48:24;3.40;99.90
21261;DHT22;10788;47.930;9.766;2023-02-15T09:56:47;4.20;99.90
21261;DHT22;10788;47.930;9.766;2023-02-15T10:05:07;5.00;99.90
21261;DHT22;10788;47.930;9.766;2023-02-15T10:10:29;5.20;99.90
21261;DHT22;10788;47.930;9.766;2023-02-15T10:13:15;5.30;99.90
21261;DHT22;10788;47.930;9.766;2023-02-15T10:15:51;5.30;99.90
21261;DHT22;10788;47.930;9.766;2023-02-15T10:18:32;5.50;99.90
21261;DHT22;10788;47.930;9.766;2023-02-15T10:26:41;5.40;99.90
21261;DHT22;10788;47.930;9.766;2023-02-15T10:29:31;5.70;99.90
21261;DHT22;10788;47.930;9.766;2023-02-15T10:34:59;6.00;99.90
21261;DHT22;10788;47.930;9.766;2023-02-15T10:48:03;6.20;99.90
21261;DHT22;10788;47.930;9.766;2023-02-15T11:01:50;6.30;99.90
21261;DHT22;10788;47.930;9.766;2023-02-15T11:07:40;6.40;99.90
21261;DHT22;10788;47.930;9.766;2023-02-15T11:12:44;6.60;99.90
21261;DHT22;10788;47.930;9.766;2023-02-15T11:18:08;6.90;99.90
21261;DHT22;10788;47.930;9.766;2023-02-15T11:23:24;6.80;99.90
21261;DHT22;10788;47.930;9.766;2023-02-15T11:26:03;6.70;99.90
21261;DHT22;10788;47.930;9.766;2023-02-15T11:28:45;6.70;99.90
21261;DHT22;10788;47.930;9.766;2023-02-15T11:31:21;6.70;99.90
21261;DHT22;10788;47.930;9.766;2023-02-15T11:34:12;6.80;99.90
21261;DHT22;10788;47.930;9.766;2023-02-15T11:36:41;6.90;99.90
21261;DHT22;10788;47.930;9.766;2023-02-15T11:39:14;6.90;99.90
21261;DHT22;10788;47.930;9.766;2023-02-15T11:41:47;6.90;99.90
21261;DHT22;10788;47.930;9.766;2023-02-15T11:44:27;7.10;99.90
21261;DHT22;10788;47.930;9.766;2023-02-15T11:46:56;7.20;99.90
21261;DHT22;10788;47.930;9.766;2023-02-15T11:49:32;7.30;99.90
21261;DHT22;10788;47.930;9.766;2023-02-15T11:52:05;7.30;99.90
21261;DHT22;10788;47.930;9.766;2023-02-15T11:54:33;7.40;99.90
21261;DHT22;10788;47.930;9.766;2023-02-15T11:57:26;7.50;99.90
21261;DHT22;10788;47.930;9.766;2023-02-15T12:02:31;7.70;99.90
21261;DHT22;10788;47.930;9.766;2023-02-15T12:05:06;7.70;99.90
21261;DHT22;10788;47.930;9.766;2023-02-15T12:07:45;7.60;99.90
21261;DHT22;10788;47.930;9.766;2023-02-15T12:10:18;7.60;99.90
21261;DHT22;10788;47.930;9.766;2023-02-15T12:12:45;7.60;99.90
21261;DHT22;10788;47.930;9.766;2023-02-15T12:15:12;7.80;99.90
21261;DHT22;10788;47.930;9.766;2023-02-15T12:17:54;8.00;99.90
21261;DHT22;10788;47.930;9.766;2023-02-15T12:20:30;8.10;99.90
21261;DHT22;10788;47.930;9.766;2023-02-15T12:27:59;8.50;99.90
21261;DHT22;10788;47.930;9.766;2023-02-15T12:30:30;8.50;99.90
21261;DHT22;10788;47.930;9.766;2023-02-15T12:35:28;8.50;99.90
21261;DHT22;10788;47.930;9.766;2023-02-15T12:37:57;8.50;99.90
21261;DHT22;10788;47.930;9.766;2023-02-15T12:40:26;8.50;99.90
21261;DHT22;10788;47.930;9.766;2023-02-15T12:42:53;8.50;99.90
21261;DHT22;10788;47.930;9.766;2023-02-15T12:45:32;8.50;99.90
21261;DHT22;10788;47.930;9.766;2023-02-15T12:48:15;8.50;99.90
21261;DHT22;10788;47.930;9.766;2023-02-15T12:50:48;8.40;99.90
21261;DHT22;10788;47.930;9.766;2023-02-15T12:53:21;8.40;99.90
21261;DHT22;10788;47.930;9.766;2023-02-15T12:58:24;8.30;99.90
21261;DHT22;10788;47.930;9.766;2023-02-15T13:03:35;8.40;99.90
21261;DHT22;10788;47.930;9.766;2023-02-15T13:06:03;8.30;99.90
21261;DHT22;10788;47.930;9.766;2023-02-15T13:08:36;8.30;99.90
21261;DHT22;10788;47.930;9.766;2023-02-15T13:11:11;8.40;99.90
21261;DHT22;10788;47.930;9.766;2023-02-15T13:14:13;8.40;99.90
21261;DHT22;10788;47.930;9.766;2023-02-15T13:16:44;8.40;99.90
21261;DHT22;10788;47.930;9.766;2023-02-15T13:19:22;8.50;99.90
21261;DHT22;10788;47.930;9.766;2023-02-15T13:21:52;8.60;99.90
21261;DHT22;10788;47.930;9.766;2023-02-15T13:24:24;8.60;99.90
21261;DHT22;10788;47.930;9.766;2023-02-15T13:26:55;8.70;99.90
21261;DHT22;10788;47.930;9.766;2023-02-15T13:29:30;8.70;99.90
21261;DHT22;10788;47.930;9.766;2023-02-15T13:31:58;8.70;99.90
21261;DHT22;10788;47.930;9.766;2023-02-15T13:34:30;8.70;99.90
21261;DHT22;10788;47.930;9.766;2023-02-15T13:37:17;8.70;99.90
21261;DHT22;10788;47.930;9.766;2023-02-15T13:42:30;8.90;99.90
21261;DHT22;10788;47.930;9.766;2023-02-15T14:10:12;9.20;99.90
21261;DHT22;10788;47.930;9.766;2023-02-15T14:15:47;9.30;99.90
21261;DHT22;10788;47.930;9.766;2023-02-15T14:19:16;9.40;99.90
21261;DHT22;10788;47.930;9.766;2023-02-15T14:21:34;9.50;99.90
21261;DHT22;10788;47.930;9.766;2023-02-15T14:32:13;9.30;99.90
21261;DHT22;10788;47.930;9.766;2023-02-15T14:35:00;9.30;99.90
21261;DHT22;10788;47.930;9.766;2023-02-15T14:43:59;9.50;99.90
21261;DHT22;10788;47.930;9.766;2023-02-15T14:46:42;9.60;99.90
21261;DHT22;10788;47.930;9.766;2023-02-15T14:56:44;9.80;99.90
21261;DHT22;10788;47.930;9.766;2023-02-15T14:59:16;9.80;99.90
21261;DHT22;10788;47.930;9.766;2023-02-15T15:02:13;9.70;99.90
21261;DHT22;10788;47.930;9.766;2023-02-15T15:04:43;9.80;99.90
21261;DHT22;10788;47.930;9.766;2023-02-15T15:07:28;9.80;99.90
21261;DHT22;10788;47.930;9.766;2023-02-15T15:10:06;9.90;99.90
21261;DHT22;10788;47.930;9.766;2023-02-15T15:12:45;9.80;99.90
21261;DHT22;10788;47.930;9.766;2023-02-15T15:18:03;9.90;99.90
21261;DHT22;10788;47.930;9.766;2023-02-15T15:42:03;9.80;99.90
21261;DHT22;10788;47.930;9.766;2023-02-15T15:49:45;9.70;99.90
21261;DHT22;10788;47.930;9.766;2023-02-15T15:52:20;9.70;99.90
21261;DHT22;10788;47.930;9.766;2023-02-15T15:54:49;9.60;99.90
21261;DHT22;10788;47.930;9.766;2023-02-15T15:57:39;9.50;99.90
21261;DHT22;10788;47.930;9.766;2023-02-15T16:03:05;9.50;99.90
21261;DHT22;10788;47.930;9.766;2023-02-15T16:05:38;9.50;99.90
21261;DHT22;10788;47.930;9.766;2023-02-15T16:08:04;9.40;99.90
21261;DHT22;10788;47.930;9.766;2023-02-15T16:10:30;9.30;99.90
21261;DHT22;10788;47.930;9.766;2023-02-15T16:13:00;9.20;99.90
21261;DHT22;10788;47.930;9.766;2023-02-15T16:15:44;9.10;99.90
21261;DHT22;10788;47.930;9.766;2023-02-15T16:18:18;8.90;99.90
21261;DHT22;10788;47.930;9.766;2023-02-15T16:21:14;8.90;99.90
21261;DHT22;10788;47.930;9.766;2023-02-15T16:29:28;8.60;99.90
21261;DHT22;10788;47.930;9.766;2023-02-15T16:34:31;8.50;99.90
21261;DHT22;10788;47.930;9.766;2023-02-15T16:37:17;8.50;99.90
21261;DHT22;10788;47.930;9.766;2023-02-15T16:39:44;8.40;99.90
21261;DHT22;10788;47.930;9.766;2023-02-15T16:42:11;8.30;99.90
21261;DHT22;10788;47.930;9.766;2023-02-15T16:44:37;8.20;99.90
21261;DHT22;10788;47.930;9.766;2023-02-15T16:47:04;8.10;99.90
21261;DHT22;10788;47.930;9.766;2023-02-15T16:49:34;8.10;99.90
21261;DHT22;10788;47.930;9.766;2023-02-15T16:52:02;8.00;99.90
21261;DHT22;10788;47.930;9.766;2023-02-15T16:54:29;7.90;99.90
21261;DHT22;10788;47.930;9.766;2023-02-15T16:56:57;7.90;99.90
21261;DHT22;10788;47.930;9.766;2023-02-15T16:59:35;7.70;99.90
21261;DHT22;10788;47.930;9.766;2023-02-15T17:02:06;7.60;99.90
21261;DHT22;10788;47.930;9.766;2023-02-15T17:04:38;7.50;99.90
21261;DHT22;10788;47.930;9.766;2023-02-15T17:07:16;7.40;99.90
21261;DHT22;10788;47.930;9.766;2023-02-15T17:09:53;7.40;99.90
21261;DHT22;10788;47.930;9.766;2023-02-15T17:12:45;7.20;99.90
21261;DHT22;10788;47.930;9.766;2023-02-15T17:18:18;7.00;99.90
21261;DHT22;10788;47.930;9.766;2023-02-15T17:20:46;6.90;99.90
21261;DHT22;10788;47.930;9.766;2023-02-15T17:23:32;6.80;99.90
21261;DHT22;10788;47.930;9.766;2023-02-15T17:26:00;6.70;99.90
21261;DHT22;10788;47.930;9.766;2023-02-15T17:28:30;6.70;99.90
21261;DHT22;10788;47.930;9.766;2023-02-15T17:30:57;6.60;99.90
21261;DHT22;10788;47.930;9.766;2023-02-15T17:33:36;6.50;99.90
21261;DHT22;10788;47.930;9.766;2023-02-15T17:38:38;6.20;99.90
21261;DHT22;10788;47.930;9.766;2023-02-15T17:41:04;6.30;99.90
21261;DHT22;10788;47.930;9.766;2023-02-15T17:43:30;6.10;99.90
21261;DHT22;10788;47.930;9.766;2023-02-15T17:45:56;6.10;99.90
21261;DHT22;10788;47.930;9.766;2023-02-15T17:48:31;5.90;99.90
21261;DHT22;10788;47.930;9.766;2023-02-15T17:50:59;5.80;99.90
21261;DHT22;10788;47.930;9.766;2023-02-15T17:53:25;5.70;99.90
21261;DHT22;10788;47.930;9.766;2023-02-15T17:55:51;5.50;99.90
21261;DHT22;10788;47.930;9.766;2023-02-15T17:58:18;5.50;99.90
21261;DHT22;10788;47.930;9.766;2023-02-15T18:00:48;5.40;99.90
21261;DHT22;10788;47.930;9.766;2023-02-15T18:06:23;5.10;99.90
21261;DHT22;10788;47.930;9.766;2023-02-15T18:09:10;4.90;99.90
21261;DHT22;10788;47.930;9.766;2023-02-15T18:11:55;4.90;99.90
21261;DHT22;10788;47.930;9.766;2023-02-15T18:14:21;4.90;99.90
21261;DHT22;10788;47.930;9.766;2023-02-15T18:16:47;4.90;99.90
21261;DHT22;10788;47.930;9.766;2023-02-15T18:19:18;4.80;99.90
21261;DHT22;10788;47.930;9.766;2023-02-15T18:21:45;4.80;99.90
21261;DHT22;10788;47.930;9.766;2023-02-15T18:24:23;4.70;99.90
21261;DHT22;10788;47.930;9.766;2023-02-15T18:26:50;4.60;99.90
21261;DHT22;10788;47.930;9.766;2023-02-15T18:29:16;4.60;99.90
21261;DHT22;10788;47.930;9.766;2023-02-15T18:31:43;4.50;99.90
21261;DHT22;10788;47.930;9.766;2023-02-15T18:34:31;4.50;99.90
21261;DHT22;10788;47.930;9.766;2023-02-15T18:36:58;4.50;99.90
21261;DHT22;10788;47.930;9.766;2023-02-15T18:39:35;4.40;99.90
21261;DHT22;10788;47.930;9.766;2023-02-15T18:42:03;4.30;99.90
21261;DHT22;10788;47.930;9.766;2023-02-15T18:44:29;4.20;99.90
21261;DHT22;10788;47.930;9.766;2023-02-15T18:46:54;4.10;99.90
21261;DHT22;10788;47.930;9.766;2023-02-15T18:49:20;4.20;99.90
21261;DHT22;10788;47.930;9.766;2023-02-15T18:51:46;4.00;99.90
21261;DHT22;10788;47.930;9.766;2023-02-15T18:54:20;4.00;99.90
21261;DHT22;10788;47.930;9.766;2023-02-15T18:56:54;3.90;99.90
21261;DHT22;10788;47.930;9.766;2023-02-15T18:59:22;3.80;99.90
21261;DHT22;10788;47.930;9.766;2023-02-15T19:01:48;3.90;99.90
21261;DHT22;10788;47.930;9.766;2023-02-15T19:04:14;3.60;99.90
21261;DHT22;10788;47.930;9.766;2023-02-15T19:06:43;3.60;99.90
21261;DHT22;10788;47.930;9.766;2023-02-15T19:09:19;3.70;99.90
21261;DHT22;10788;47.930;9.766;2023-02-15T19:11:52;3.60;99.90
21261;DHT22;10788;47.930;9.766;2023-02-15T19:14:31;3.50;99.90
21261;DHT22;10788;47.930;9.766;2023-02-15T19:16:58;3.50;99.90
21261;DHT22;10788;47.930;9.766;2023-02-15T19:19:25;3.50;99.90
21261;DHT22;10788;47.930;9.766;2023-02-15T19:21:51;3.40;99.90
21261;DHT22;10788;47.930;9.766;2023-02-15T19:24:36;3.30;99.90
21261;DHT22;10788;47.930;9.766;2023-02-15T19:27:02;3.30;99.90
21261;DHT22;10788;47.930;9.766;2023-02-15T19:29:29;3.20;99.90
21261;DHT22;10788;47.930;9.766;2023-02-15T19:31:55;3.10;99.90